createdAt,value
2018-03-31T00:00:38.691Z,26.58
2018-03-31T00:01:40.747Z,24.20
2018-03-31T00:02:42.802Z,24.65
2018-03-31T00:03:44.895Z,25.70
2018-03-31T00:04:46.964Z,25.35
2018-03-31T00:05:48.993Z,23.48
2018-03-31T00:06:51.020Z,25.60
2018-03-31T00:07:53.049Z,28.48
2018-03-31T00:08:55.841Z,25.25
2018-03-31T00:09:57.901Z,23.08
2018-03-31T00:10:59.929Z,25.42
2018-03-31T00:12:02.775Z,26.37
2018-03-31T00:13:04.805Z,27.42
2018-03-31T00:14:06.837Z,26.77
2018-03-31T00:15:08.868Z,22.95
2018-03-31T00:16:10.897Z,25.62
2018-03-31T00:17:12.976Z,24.65
2018-03-31T00:18:15.009Z,28.52
2018-03-31T00:19:17.820Z,25.35
2018-03-31T00:20:19.851Z,24.55
2018-03-31T00:21:22.702Z,25.02
2018-03-31T00:22:25.541Z,25.52
2018-03-31T00:23:27.569Z,26.92
2018-03-31T00:24:29.604Z,23.27
2018-03-31T00:25:32.394Z,26.70
2018-03-31T00:26:34.464Z,27.45
2018-03-31T00:27:36.492Z,24.35
2018-03-31T00:28:38.525Z,25.50
2018-03-31T00:29:40.565Z,24.80
2018-03-31T00:30:42.594Z,23.17
2018-03-31T00:31:44.656Z,24.87
2018-03-31T00:32:46.696Z,26.77
2018-03-31T00:33:48.733Z,26.73
2018-03-31T00:34:50.761Z,24.75
2018-03-31T00:35:53.552Z,24.87
2018-03-31T00:36:55.618Z,24.05
2018-03-31T00:37:57.644Z,21.60
2018-03-31T00:39:00.469Z,24.45
2018-03-31T00:40:02.512Z,24.60
2018-03-31T00:41:04.541Z,24.45
2018-03-31T00:42:06.574Z,27.17
2018-03-31T00:43:09.410Z,24.37
2018-03-31T00:44:11.465Z,23.95
2018-03-31T00:45:13.499Z,22.62
2018-03-31T00:46:15.569Z,24.42
2018-03-31T00:47:17.602Z,27.17
2018-03-31T00:48:19.622Z,26.25
2018-03-31T00:49:22.428Z,27.15
2018-03-31T00:50:24.473Z,25.20
2018-03-31T00:51:26.529Z,24.00
2018-03-31T00:52:28.573Z,36.92
2018-03-31T00:53:31.368Z,26.85
2018-03-31T00:54:33.411Z,28.48
2018-03-31T00:55:35.464Z,23.20
2018-03-31T00:56:37.522Z,26.87
2018-03-31T00:57:39.601Z,26.60
2018-03-31T00:58:41.641Z,21.48
2018-03-31T00:59:43.721Z,26.27
2018-03-31T01:00:45.749Z,25.02
2018-03-31T01:01:47.788Z,26.02
2018-03-31T01:02:49.818Z,25.20
2018-03-31T01:03:51.857Z,22.35
2018-03-31T01:04:53.926Z,24.42
2018-03-31T01:05:55.952Z,26.12
2018-03-31T01:06:58.032Z,26.27
2018-03-31T01:08:00.061Z,22.90
2018-03-31T01:09:02.101Z,22.02
2018-03-31T01:10:04.138Z,27.27
2018-03-31T01:11:06.164Z,25.40
2018-03-31T01:12:09.011Z,22.65
2018-03-31T01:13:11.040Z,21.33
2018-03-31T01:14:13.073Z,23.90
2018-03-31T01:15:15.105Z,22.77
2018-03-31T01:16:17.903Z,20.40
2018-03-31T01:17:19.982Z,24.17
2018-03-31T01:18:22.037Z,24.40
2018-03-31T01:19:24.084Z,22.83
2018-03-31T01:20:26.125Z,25.25
2018-03-31T01:21:28.149Z,25.02
2018-03-31T01:22:30.936Z,21.67
2018-03-31T01:23:32.997Z,23.85
2018-03-31T01:24:35.025Z,21.98
2018-03-31T01:25:37.813Z,22.60
2018-03-31T01:26:39.848Z,26.77
2018-03-31T01:27:42.645Z,24.90
2018-03-31T01:28:44.726Z,22.85
2018-03-31T01:29:46.755Z,24.05
2018-03-31T01:30:48.791Z,22.33
2018-03-31T01:31:51.597Z,21.05
2018-03-31T01:32:53.621Z,25.75
2018-03-31T01:33:56.459Z,21.85
2018-03-31T01:34:58.516Z,22.92
2018-03-31T01:36:00.552Z,23.52
2018-03-31T01:37:02.581Z,27.73
2018-03-31T01:38:04.653Z,23.60
2018-03-31T01:39:06.681Z,21.08
2018-03-31T01:40:08.741Z,25.80
2018-03-31T01:41:10.777Z,20.33
2018-03-31T01:42:13.575Z,23.67
2018-03-31T01:43:15.649Z,21.70
2018-03-31T01:44:17.721Z,21.90
2018-03-31T01:45:19.749Z,20.98
2018-03-31T01:46:21.818Z,22.33
2018-03-31T01:47:23.850Z,26.23
2018-03-31T01:48:25.882Z,24.50
2018-03-31T01:49:27.908Z,23.48
2018-03-31T01:50:29.937Z,24.55
2018-03-31T01:51:32.010Z,22.25
2018-03-31T01:52:34.053Z,24.00
2018-03-31T01:53:36.077Z,23.73
2018-03-31T01:54:38.137Z,24.67
2018-03-31T01:55:40.179Z,26.12
2018-03-31T01:56:42.201Z,25.45
2018-03-31T01:57:44.994Z,25.75
2018-03-31T01:58:47.061Z,25.83
2018-03-31T01:59:49.168Z,22.52
2018-03-31T02:00:52.008Z,26.33
2018-03-31T02:01:54.069Z,24.55
2018-03-31T02:02:56.102Z,26.77
2018-03-31T02:03:58.175Z,24.23
2018-03-31T02:05:00.198Z,26.33
2018-03-31T02:06:02.242Z,29.33
2018-03-31T02:07:04.304Z,24.60
2018-03-31T02:08:06.341Z,26.55
2018-03-31T02:09:09.270Z,27.42
2018-03-31T02:10:11.317Z,28.92
2018-03-31T02:11:13.385Z,27.70
2018-03-31T02:12:15.422Z,27.37
2018-03-31T02:13:17.453Z,27.00
2018-03-31T02:14:19.519Z,27.40
2018-03-31T02:15:21.590Z,26.60
2018-03-31T02:16:23.616Z,24.95
2018-03-31T02:17:25.684Z,25.75
2018-03-31T02:18:27.741Z,28.25
2018-03-31T02:19:29.811Z,25.92
2018-03-31T02:20:31.840Z,30.45
2018-03-31T02:21:33.866Z,25.17
2018-03-31T02:22:35.908Z,27.58
2018-03-31T02:23:37.967Z,27.75
2018-03-31T02:24:39.997Z,24.48
2018-03-31T02:25:42.071Z,28.50
2018-03-31T02:26:44.098Z,27.92
2018-03-31T02:27:46.127Z,25.88
2018-03-31T02:28:48.192Z,29.85
2018-03-31T02:29:50.229Z,25.75
2018-03-31T02:30:52.299Z,26.85
2018-03-31T02:31:54.325Z,26.08
2018-03-31T02:32:57.168Z,27.23
2018-03-31T02:33:59.203Z,27.27
2018-03-31T02:35:01.237Z,27.58
2018-03-31T02:36:03.275Z,26.35
2018-03-31T02:37:05.305Z,27.67
2018-03-31T02:38:08.231Z,29.23
2018-03-31T02:39:10.262Z,30.83
2018-03-31T02:40:12.299Z,26.95
2018-03-31T02:41:15.100Z,28.15
2018-03-31T02:42:17.129Z,24.30
2018-03-31T02:43:19.977Z,27.05
2018-03-31T02:44:22.014Z,25.15
2018-03-31T02:45:24.037Z,25.92
2018-03-31T02:46:26.069Z,31.83
2018-03-31T02:47:28.865Z,27.50
2018-03-31T02:48:30.936Z,32.78
2018-03-31T02:49:32.978Z,30.37
2018-03-31T02:50:35.011Z,30.98
2018-03-31T02:51:37.045Z,28.30
2018-03-31T02:52:39.833Z,31.58
2018-03-31T02:53:41.917Z,34.78
2018-03-31T02:54:43.942Z,31.87
2018-03-31T02:55:45.992Z,28.40
2018-03-31T02:56:48.798Z,31.65
2018-03-31T02:57:50.838Z,32.15
2018-03-31T02:58:52.915Z,32.42
2018-03-31T02:59:54.951Z,31.83
2018-03-31T03:00:57.017Z,37.28
2018-03-31T03:01:59.054Z,33.63
2018-03-31T03:03:01.098Z,37.40
2018-03-31T03:04:03.136Z,38.97
2018-03-31T03:05:05.938Z,33.38
2018-03-31T03:06:08.020Z,32.30
2018-03-31T03:07:10.049Z,35.65
2018-03-31T03:08:12.086Z,36.85
2018-03-31T03:09:14.126Z,37.92
2018-03-31T03:10:16.929Z,35.50
2018-03-31T03:11:18.992Z,42.60
2018-03-31T03:12:21.023Z,35.40
2018-03-31T03:13:23.849Z,38.20
2018-03-31T03:14:25.881Z,44.85
2018-03-31T03:15:27.910Z,39.47
2018-03-31T03:16:29.946Z,38.38
2018-03-31T03:17:32.781Z,39.13
2018-03-31T03:18:34.813Z,40.67
2018-03-31T03:19:36.844Z,39.00
2018-03-31T03:20:38.869Z,38.80
2018-03-31T03:21:40.945Z,40.15
2018-03-31T03:22:43.744Z,41.28
2018-03-31T03:23:45.769Z,41.67
2018-03-31T03:24:48.568Z,38.33
2018-03-31T03:25:50.602Z,40.08
2018-03-31T03:26:53.434Z,41.88
2018-03-31T03:27:55.466Z,41.33
2018-03-31T03:28:57.543Z,39.63
2018-03-31T03:29:59.572Z,38.08
2018-03-31T03:31:01.612Z,39.72
2018-03-31T03:32:03.668Z,37.08
2018-03-31T03:33:05.692Z,37.78
2018-03-31T03:34:08.514Z,36.17
2018-03-31T03:35:10.548Z,39.20
2018-03-31T03:36:12.569Z,35.22
2018-03-31T03:37:15.403Z,38.60
2018-03-31T03:38:17.433Z,34.15
2018-03-31T03:39:19.490Z,34.10
2018-03-31T03:40:21.522Z,37.90
2018-03-31T03:41:23.556Z,33.85
2018-03-31T03:42:25.594Z,33.05
2018-03-31T03:43:27.670Z,32.83
2018-03-31T03:44:30.510Z,33.30
2018-03-31T03:45:32.561Z,32.13
2018-03-31T03:46:34.626Z,33.83
2018-03-31T03:47:36.665Z,32.45
2018-03-31T03:48:38.699Z,34.67
2018-03-31T03:49:40.726Z,36.40
2018-03-31T03:50:43.524Z,31.42
2018-03-31T03:51:45.593Z,40.55
2018-03-31T03:52:47.637Z,31.87
2018-03-31T03:53:49.669Z,32.88
2018-03-31T03:54:51.698Z,40.05
2018-03-31T03:55:53.725Z,35.03
2018-03-31T03:56:55.802Z,38.03
2018-03-31T03:57:57.824Z,35.15
2018-03-31T03:58:59.857Z,33.50
2018-03-31T04:00:01.891Z,33.08
2018-03-31T04:01:04.682Z,36.53
2018-03-31T04:02:06.744Z,38.25
2018-03-31T04:03:08.804Z,31.98
2018-03-31T04:04:10.843Z,35.50
2018-03-31T04:05:12.877Z,30.77
2018-03-31T04:06:15.678Z,34.08
2018-03-31T04:07:17.756Z,34.30
2018-03-31T04:08:19.800Z,33.47
2018-03-31T04:09:21.831Z,35.90
2018-03-31T04:10:23.864Z,34.97
2018-03-31T04:11:25.894Z,33.80
2018-03-31T04:12:27.957Z,38.03
2018-03-31T04:13:29.989Z,35.25
2018-03-31T04:14:32.017Z,33.17
2018-03-31T04:15:34.052Z,35.90
2018-03-31T04:16:36.108Z,35.47
2018-03-31T04:17:38.179Z,34.28
2018-03-31T04:18:40.210Z,32.13
2018-03-31T04:19:43.044Z,41.53
2018-03-31T04:20:45.080Z,37.08
2018-03-31T04:21:47.132Z,36.75
2018-03-31T04:22:49.180Z,36.75
2018-03-31T04:23:51.249Z,33.72
2018-03-31T04:24:53.269Z,37.00
2018-03-31T04:25:55.297Z,34.10
2018-03-31T04:26:57.379Z,41.55
2018-03-31T04:27:59.423Z,36.80
2018-03-31T04:29:01.462Z,33.50
2018-03-31T04:30:04.261Z,37.58
2018-03-31T04:31:06.294Z,33.97
2018-03-31T04:32:09.126Z,40.17
2018-03-31T04:33:11.150Z,34.53
2018-03-31T04:34:13.179Z,40.10
2018-03-31T04:35:15.973Z,39.30
2018-03-31T04:36:18.006Z,38.17
2018-03-31T04:37:20.847Z,33.45
2018-03-31T04:38:22.868Z,36.35
2018-03-31T04:39:24.905Z,40.15
2018-03-31T04:40:26.944Z,41.35
2018-03-31T04:41:29.017Z,38.47
2018-03-31T04:42:31.056Z,40.55
2018-03-31T04:43:33.081Z,38.88
2018-03-31T04:44:35.117Z,37.45
2018-03-31T04:45:37.137Z,41.97
2018-03-31T04:46:39.197Z,38.60
2018-03-31T04:47:41.230Z,37.38
2018-03-31T04:48:43.283Z,38.13
2018-03-31T04:49:45.352Z,37.70
2018-03-31T04:50:47.386Z,36.63
2018-03-31T04:51:50.232Z,39.38
2018-03-31T04:52:52.295Z,37.45
2018-03-31T04:53:54.327Z,37.50
2018-03-31T04:54:56.357Z,37.80
2018-03-31T04:55:58.512Z,36.20
2018-03-31T04:57:00.555Z,38.28
2018-03-31T04:58:02.611Z,38.38
2018-03-31T04:59:04.642Z,37.67
2018-03-31T05:00:07.481Z,38.38
2018-03-31T05:01:09.512Z,41.22
2018-03-31T05:02:11.569Z,41.05
2018-03-31T05:03:13.607Z,36.00
2018-03-31T05:04:15.633Z,38.03
2018-03-31T05:05:18.470Z,36.85
2018-03-31T05:06:20.521Z,40.90
2018-03-31T05:07:22.558Z,41.03
2018-03-31T05:08:24.609Z,41.00
2018-03-31T05:09:26.634Z,44.45
2018-03-31T05:10:28.694Z,41.90
2018-03-31T05:11:30.783Z,39.15
2018-03-31T05:12:32.809Z,45.92
2018-03-31T05:13:34.839Z,44.75
2018-03-31T05:14:37.630Z,50.53
2018-03-31T05:15:39.667Z,40.75
2018-03-31T05:16:42.506Z,49.88
2018-03-31T05:17:44.548Z,59.35
2018-03-31T05:18:46.577Z,52.72
2018-03-31T05:19:48.602Z,52.92
2018-03-31T05:20:51.418Z,62.33
2018-03-31T05:21:53.484Z,55.42
2018-03-31T05:22:55.561Z,59.83
2018-03-31T05:23:57.587Z,54.45
2018-03-31T05:24:59.608Z,51.63
2018-03-31T05:26:01.648Z,54.45
2018-03-31T05:27:04.453Z,57.22
2018-03-31T05:28:06.536Z,54.60
2018-03-31T05:29:08.569Z,56.33
2018-03-31T05:30:10.598Z,54.55
2018-03-31T05:31:12.632Z,62.85
2018-03-31T05:32:15.418Z,56.67
2018-03-31T05:33:18.262Z,57.53
2018-03-31T05:34:20.289Z,57.50
2018-03-31T05:35:22.336Z,60.28
2018-03-31T05:36:24.370Z,59.55
2018-03-31T05:37:26.405Z,61.45
2018-03-31T05:38:29.252Z,53.45
2018-03-31T05:39:31.278Z,57.72
2018-03-31T05:40:33.485Z,61.53
2018-03-31T05:41:36.286Z,57.78
2018-03-31T05:42:38.314Z,64.22
2018-03-31T05:43:41.138Z,66.80
2018-03-31T05:44:43.179Z,60.50
2018-03-31T05:45:45.213Z,60.70
2018-03-31T05:46:47.274Z,61.00
2018-03-31T05:47:49.310Z,63.05
2018-03-31T05:48:52.108Z,86.03
2018-03-31T05:49:54.156Z,101.87
2018-03-31T05:50:56.193Z,116.70
2018-03-31T05:51:59.133Z,91.40
2018-03-31T05:53:01.164Z,70.20
2018-03-31T05:54:03.194Z,56.05
2018-03-31T05:55:05.286Z,54.78
2018-03-31T05:56:07.315Z,50.20
2018-03-31T05:57:09.346Z,53.53
2018-03-31T05:58:11.368Z,51.50
2018-03-31T05:59:13.429Z,52.17
2018-03-31T06:00:15.462Z,49.97
2018-03-31T06:01:17.502Z,49.88
2018-03-31T06:02:19.562Z,48.25
2018-03-31T06:03:21.594Z,45.53
2018-03-31T06:04:23.636Z,46.20
2018-03-31T06:05:25.718Z,48.47
2018-03-31T06:06:27.754Z,53.85
2018-03-31T06:07:29.785Z,46.72
2018-03-31T06:08:32.587Z,46.28
2018-03-31T06:09:34.625Z,48.60
2018-03-31T06:10:36.686Z,46.53
2018-03-31T06:11:38.715Z,47.85
2018-03-31T06:12:41.567Z,44.67
2018-03-31T06:13:43.598Z,45.70
2018-03-31T06:14:45.621Z,47.35
2018-03-31T06:15:47.644Z,47.38
2018-03-31T06:16:50.446Z,42.13
2018-03-31T06:17:52.508Z,47.95
2018-03-31T06:18:54.533Z,49.22
2018-03-31T06:19:57.330Z,41.35
2018-03-31T06:20:59.357Z,52.08
2018-03-31T06:22:02.198Z,45.90
2018-03-31T06:23:04.267Z,45.97
2018-03-31T06:24:06.308Z,45.55
2018-03-31T06:25:08.336Z,42.05
2018-03-31T06:26:10.369Z,46.58
2018-03-31T06:27:12.433Z,45.97
2018-03-31T06:28:14.506Z,47.95
2018-03-31T06:29:16.544Z,43.17
2018-03-31T06:30:18.581Z,45.17
2018-03-31T06:31:20.614Z,53.40
2018-03-31T06:32:22.669Z,46.10
2018-03-31T06:33:25.504Z,46.22
2018-03-31T06:34:27.552Z,44.67
2018-03-31T06:35:29.593Z,54.00
2018-03-31T06:36:31.657Z,53.53
2018-03-31T06:37:33.688Z,53.00
2018-03-31T06:38:35.718Z,51.65
2018-03-31T06:39:38.519Z,42.53
2018-03-31T06:40:40.549Z,47.58
2018-03-31T06:41:43.453Z,51.25
2018-03-31T06:42:45.482Z,47.40
2018-03-31T06:43:48.321Z,46.33
2018-03-31T06:44:50.346Z,57.45
2018-03-31T06:45:52.369Z,50.85
2018-03-31T06:46:55.196Z,55.45
2018-03-31T06:47:57.229Z,56.37
2018-03-31T06:48:59.265Z,51.55
2018-03-31T06:50:01.293Z,61.67
2018-03-31T06:51:04.114Z,56.40
2018-03-31T06:52:06.148Z,52.78
2018-03-31T06:53:08.182Z,57.80
2018-03-31T06:54:10.977Z,48.05
2018-03-31T06:55:13.042Z,55.10
2018-03-31T06:56:15.113Z,53.50
2018-03-31T06:57:17.141Z,83.87
2018-03-31T06:58:19.172Z,56.85
2018-03-31T06:59:21.222Z,58.45
2018-03-31T07:00:24.035Z,50.30
2018-03-31T07:01:26.105Z,59.78
2018-03-31T07:02:28.126Z,51.70
2018-03-31T07:03:30.166Z,54.05
2018-03-31T07:04:32.984Z,56.83
2018-03-31T07:05:35.011Z,55.00
2018-03-31T07:06:37.218Z,50.47
2018-03-31T07:07:40.176Z,48.35
2018-03-31T07:08:42.254Z,60.28
2018-03-31T07:09:44.306Z,52.10
2018-03-31T07:10:46.353Z,49.53
2018-03-31T07:11:48.392Z,48.83
2018-03-31T07:12:50.452Z,43.08
2018-03-31T07:13:52.510Z,46.35
2018-03-31T07:14:54.534Z,45.78
2018-03-31T07:15:56.564Z,46.78
2018-03-31T07:16:58.605Z,40.53
2018-03-31T07:18:01.410Z,39.65
2018-03-31T07:19:03.736Z,46.13
2018-03-31T07:20:05.801Z,45.47
2018-03-31T07:21:08.602Z,38.78
2018-03-31T07:22:10.629Z,42.65
2018-03-31T07:23:13.417Z,50.90
2018-03-31T07:24:15.469Z,43.67
2018-03-31T07:25:17.537Z,43.13
2018-03-31T07:26:19.560Z,47.67
2018-03-31T07:27:22.374Z,47.90
2018-03-31T07:28:24.402Z,43.80
2018-03-31T07:29:26.460Z,57.55
2018-03-31T07:30:28.490Z,48.28
2018-03-31T07:31:30.551Z,52.15
2018-03-31T07:32:33.464Z,54.60
2018-03-31T07:33:35.497Z,45.42
2018-03-31T07:34:37.525Z,48.30
2018-03-31T07:35:39.572Z,46.00
2018-03-31T07:36:41.644Z,54.30
2018-03-31T07:37:44.432Z,58.08
2018-03-31T07:38:46.453Z,44.75
2018-03-31T07:39:48.489Z,53.15
2018-03-31T07:40:50.518Z,51.00
2018-03-31T07:41:52.587Z,57.17
2018-03-31T07:42:54.722Z,53.90
2018-03-31T07:43:56.749Z,51.50
2018-03-31T07:44:59.536Z,56.28
2018-03-31T07:46:01.573Z,64.20
2018-03-31T07:47:04.414Z,53.40
2018-03-31T07:48:06.461Z,62.70
2018-03-31T07:49:08.493Z,48.85
2018-03-31T07:50:10.525Z,54.47
2018-03-31T07:51:12.549Z,56.10
2018-03-31T07:52:14.621Z,53.58
2018-03-31T07:53:17.410Z,54.25
2018-03-31T07:54:19.446Z,50.50
2018-03-31T07:55:22.238Z,53.45
2018-03-31T07:56:24.275Z,53.30
2018-03-31T07:57:26.345Z,50.70
2018-03-31T07:58:28.379Z,48.38
2018-03-31T07:59:31.207Z,49.72
2018-03-31T08:00:33.233Z,48.03
2018-03-31T08:01:35.274Z,57.17
2018-03-31T08:02:37.306Z,55.10
2018-03-31T08:03:39.330Z,48.53
2018-03-31T08:04:41.424Z,47.60
2018-03-31T08:05:44.224Z,51.63
2018-03-31T08:06:46.268Z,49.42
2018-03-31T08:07:48.341Z,51.03
2018-03-31T08:08:50.374Z,49.08
2018-03-31T08:09:52.405Z,61.35
2018-03-31T08:10:54.433Z,51.45
2018-03-31T08:11:56.470Z,54.20
2018-03-31T08:12:58.539Z,50.60
2018-03-31T08:14:00.586Z,52.42
2018-03-31T08:15:02.605Z,47.50
2018-03-31T08:16:04.640Z,54.75
2018-03-31T08:17:07.424Z,52.25
2018-03-31T08:18:10.248Z,55.55
2018-03-31T08:19:12.275Z,53.95
2018-03-31T08:20:14.342Z,54.70
2018-03-31T08:21:16.370Z,51.30
2018-03-31T08:22:18.439Z,47.97
2018-03-31T08:23:20.478Z,55.10
2018-03-31T08:24:22.541Z,56.13
2018-03-31T08:25:24.606Z,57.70
2018-03-31T08:26:26.633Z,51.28
2018-03-31T08:27:29.439Z,57.35
2018-03-31T08:28:31.477Z,58.90
2018-03-31T08:29:33.530Z,60.55
2018-03-31T08:30:36.423Z,55.00
2018-03-31T08:31:38.465Z,56.75
2018-03-31T08:32:41.431Z,71.82
2018-03-31T08:33:43.469Z,63.50
2018-03-31T08:34:46.298Z,59.85
2018-03-31T08:35:48.326Z,59.88
2018-03-31T08:36:50.376Z,61.08
2018-03-31T08:37:52.536Z,63.08
2018-03-31T08:38:54.719Z,61.72
2018-03-31T08:39:56.769Z,61.75
2018-03-31T08:40:58.803Z,66.10
2018-03-31T08:42:00.864Z,72.87
2018-03-31T08:43:02.896Z,69.43
2018-03-31T08:44:04.971Z,71.03
2018-03-31T08:45:07.044Z,67.87
2018-03-31T08:46:09.060Z,69.90
2018-03-31T08:47:11.120Z,72.57
2018-03-31T08:48:13.900Z,74.28
2018-03-31T08:49:15.957Z,67.03
2018-03-31T08:50:17.976Z,62.62
2018-03-31T08:51:20.770Z,74.30
2018-03-31T08:52:22.816Z,70.90
2018-03-31T08:53:24.933Z,77.82
2018-03-31T08:54:26.973Z,70.87
2018-03-31T08:55:29.002Z,68.12
2018-03-31T08:56:31.036Z,69.82
2018-03-31T08:57:33.828Z,67.82
2018-03-31T08:58:35.900Z,73.18
2018-03-31T08:59:37.932Z,71.22
2018-03-31T09:00:39.965Z,69.70
2018-03-31T09:01:42.799Z,63.83
2018-03-31T09:02:45.054Z,69.47
2018-03-31T09:03:47.083Z,65.75
2018-03-31T09:04:49.321Z,67.18
2018-03-31T09:05:51.468Z,66.00
2018-03-31T09:06:54.636Z,63.58
2018-03-31T09:07:57.042Z,66.93
2018-03-31T09:08:59.311Z,65.82
2018-03-31T09:10:01.423Z,72.53
2018-03-31T09:11:03.473Z,74.87
2018-03-31T09:12:05.506Z,71.03
2018-03-31T09:13:07.532Z,68.53
2018-03-31T09:14:09.706Z,67.30
2018-03-31T09:15:11.822Z,68.75
2018-03-31T09:16:14.768Z,60.85
2018-03-31T09:17:16.820Z,73.43
2018-03-31T09:18:18.893Z,74.57
2018-03-31T09:19:21.796Z,73.53
2018-03-31T09:20:23.876Z,69.87
2018-03-31T09:21:25.913Z,74.05
2018-03-31T09:22:27.941Z,70.97
2018-03-31T09:23:30.763Z,73.55
2018-03-31T09:24:32.793Z,73.85
2018-03-31T09:25:34.865Z,74.55
2018-03-31T09:26:36.902Z,67.15
2018-03-31T09:27:38.932Z,68.65
2018-03-31T09:28:40.963Z,70.62
2018-03-31T09:29:43.007Z,79.30
2018-03-31T09:30:45.074Z,68.60
2018-03-31T09:31:47.100Z,66.87
2018-03-31T09:32:49.138Z,62.45
2018-03-31T09:33:51.181Z,67.55
2018-03-31T09:34:53.210Z,76.28
2018-03-31T09:35:56.042Z,62.67
2018-03-31T09:36:58.078Z,70.95
2018-03-31T09:38:00.110Z,79.95
2018-03-31T09:39:02.150Z,82.28
2018-03-31T09:40:04.206Z,70.97
2018-03-31T09:41:06.248Z,67.75
2018-03-31T09:42:09.074Z,63.28
2018-03-31T09:43:11.099Z,63.67
2018-03-31T09:44:13.138Z,62.75
2018-03-31T09:45:15.974Z,68.10
2018-03-31T09:46:18.006Z,72.78
2018-03-31T09:47:20.047Z,60.15
2018-03-31T09:48:22.082Z,60.20
2018-03-31T09:49:24.145Z,57.30
2018-03-31T09:50:26.197Z,64.18
2018-03-31T09:51:28.231Z,61.70
2018-03-31T09:52:31.033Z,62.45
2018-03-31T09:53:33.094Z,64.20
2018-03-31T09:54:35.116Z,62.35
2018-03-31T09:55:37.961Z,67.55
2018-03-31T09:56:39.997Z,65.87
2018-03-31T09:57:42.039Z,66.97
2018-03-31T09:58:44.070Z,68.55
2018-03-31T09:59:46.103Z,58.58
2018-03-31T10:00:48.954Z,60.78
2018-03-31T10:01:51.002Z,57.55
2018-03-31T10:02:53.034Z,62.13
2018-03-31T10:03:55.062Z,55.35
2018-03-31T10:04:57.104Z,57.50
2018-03-31T10:05:59.325Z,54.63
2018-03-31T10:07:01.367Z,60.30
2018-03-31T10:08:03.437Z,67.03
2018-03-31T10:09:05.465Z,59.75
2018-03-31T10:10:07.487Z,61.47
2018-03-31T10:11:09.532Z,58.63
2018-03-31T10:12:11.562Z,62.83
2018-03-31T10:13:13.648Z,69.95
2018-03-31T10:14:15.709Z,69.40
2018-03-31T10:15:17.744Z,66.72
2018-03-31T10:16:20.577Z,61.78
2018-03-31T10:17:22.607Z,59.58
2018-03-31T10:18:24.666Z,70.82
2018-03-31T10:19:26.706Z,62.35
2018-03-31T10:20:28.794Z,65.70
2018-03-31T10:21:30.825Z,56.92
2018-03-31T10:22:32.868Z,61.47
2018-03-31T10:23:34.933Z,61.33
2018-03-31T10:24:36.964Z,62.38
2018-03-31T10:25:39.037Z,68.50
2018-03-31T10:26:41.081Z,72.40
2018-03-31T10:27:43.112Z,61.28
2018-03-31T10:28:45.917Z,62.25
2018-03-31T10:29:47.957Z,56.22
2018-03-31T10:30:50.035Z,56.05
2018-03-31T10:31:52.070Z,61.33
2018-03-31T10:32:54.101Z,60.17
2018-03-31T10:33:56.907Z,56.17
2018-03-31T10:34:58.941Z,59.90
2018-03-31T10:36:01.779Z,57.58
2018-03-31T10:37:03.814Z,58.30
2018-03-31T10:38:05.841Z,51.95
2018-03-31T10:39:07.870Z,54.00
2018-03-31T10:40:10.700Z,52.30
2018-03-31T10:41:12.779Z,56.58
2018-03-31T10:42:14.836Z,58.50
2018-03-31T10:43:16.886Z,53.33
2018-03-31T10:44:18.925Z,50.33
2018-03-31T10:45:20.990Z,54.85
2018-03-31T10:46:23.013Z,54.65
2018-03-31T10:47:25.125Z,57.62
2018-03-31T10:48:27.123Z,56.08
2018-03-31T10:49:29.164Z,55.28
2018-03-31T10:50:31.241Z,56.08
2018-03-31T10:51:33.275Z,57.20
2018-03-31T10:52:35.292Z,51.22
2018-03-31T10:53:38.084Z,49.45
2018-03-31T10:54:40.117Z,58.40
2018-03-31T10:55:42.953Z,58.58
2018-03-31T10:56:45.024Z,55.75
2018-03-31T10:57:47.095Z,53.70
2018-03-31T10:58:49.121Z,45.95
2018-03-31T10:59:51.145Z,47.80
2018-03-31T11:00:53.520Z,51.28
2018-03-31T11:01:55.581Z,58.87
2018-03-31T11:02:57.614Z,55.22
2018-03-31T11:03:59.646Z,53.22
2018-03-31T11:05:02.446Z,56.45
2018-03-31T11:06:04.478Z,52.40
2018-03-31T11:07:07.309Z,49.75
2018-03-31T11:08:09.344Z,58.95
2018-03-31T11:09:11.388Z,56.83
2018-03-31T11:10:13.412Z,60.40
2018-03-31T11:11:15.449Z,57.97
2018-03-31T11:12:18.276Z,53.92
2018-03-31T11:13:20.317Z,49.72
2018-03-31T11:14:22.373Z,55.50
2018-03-31T11:15:24.404Z,55.42
2018-03-31T11:16:27.236Z,56.75
2018-03-31T11:17:29.281Z,57.83
2018-03-31T11:18:31.345Z,53.72
2018-03-31T11:19:33.424Z,55.17
2018-03-31T11:20:36.226Z,64.45
2018-03-31T11:21:38.257Z,54.17
2018-03-31T11:22:41.059Z,53.10
2018-03-31T11:23:43.090Z,57.28
2018-03-31T11:24:45.197Z,57.92
2018-03-31T11:25:47.264Z,53.97
2018-03-31T11:26:49.297Z,56.35
2018-03-31T11:27:51.331Z,53.78
2018-03-31T11:28:53.362Z,51.83
2018-03-31T11:29:56.154Z,51.92
2018-03-31T11:30:58.218Z,51.35
2018-03-31T11:32:00.245Z,53.75
2018-03-31T11:33:03.042Z,51.47
2018-03-31T11:34:05.091Z,51.72
2018-03-31T11:35:07.133Z,55.47
2018-03-31T11:36:09.969Z,52.92
2018-03-31T11:37:12.001Z,56.53
2018-03-31T11:38:14.034Z,54.15
2018-03-31T11:39:16.061Z,60.53
2018-03-31T11:40:18.864Z,57.22
2018-03-31T11:41:20.946Z,60.10
2018-03-31T11:42:23.005Z,59.55
2018-03-31T11:43:25.025Z,50.40
2018-03-31T11:44:27.062Z,51.08
2018-03-31T11:45:29.247Z,49.92
2018-03-31T11:46:31.327Z,52.00
2018-03-31T11:47:33.373Z,58.78
2018-03-31T11:48:35.409Z,51.97
2018-03-31T11:49:37.442Z,64.12
2018-03-31T11:50:39.481Z,58.30
2018-03-31T11:51:42.309Z,55.47
2018-03-31T11:52:44.352Z,64.25
2018-03-31T11:53:46.376Z,52.38
2018-03-31T11:54:48.408Z,59.67
2018-03-31T11:55:50.441Z,54.22
2018-03-31T11:56:52.517Z,59.22
2018-03-31T11:57:54.558Z,58.00
2018-03-31T11:58:56.598Z,59.28
2018-03-31T11:59:58.634Z,59.67
2018-03-31T12:01:00.676Z,53.25
2018-03-31T12:02:02.749Z,57.38
2018-03-31T12:03:04.778Z,57.15
2018-03-31T12:04:06.817Z,57.30
2018-03-31T12:05:08.990Z,60.28
2018-03-31T12:06:11.018Z,60.55
2018-03-31T12:07:13.862Z,55.75
2018-03-31T12:08:15.899Z,56.05
2018-03-31T12:09:17.936Z,56.80
2018-03-31T12:10:20.003Z,59.45
2018-03-31T12:11:22.038Z,68.50
2018-03-31T12:12:24.078Z,64.20
2018-03-31T12:13:26.112Z,52.62
2018-03-31T12:14:28.922Z,56.30
2018-03-31T12:15:30.989Z,53.42
2018-03-31T12:16:33.054Z,54.58
2018-03-31T12:17:35.094Z,50.67
2018-03-31T12:18:37.153Z,47.80
2018-03-31T12:19:39.185Z,48.38
2018-03-31T12:20:41.228Z,51.17
2018-03-31T12:21:44.038Z,50.25
2018-03-31T12:22:46.110Z,46.78
2018-03-31T12:23:48.143Z,45.75
2018-03-31T12:24:50.185Z,45.78
2018-03-31T12:25:52.213Z,48.95
2018-03-31T12:26:55.062Z,47.03
2018-03-31T12:27:57.094Z,43.78
2018-03-31T12:28:59.120Z,40.35
2018-03-31T12:30:01.166Z,53.03
2018-03-31T12:31:03.205Z,46.75
2018-03-31T12:32:06.042Z,45.95
2018-03-31T12:33:08.085Z,51.03
2018-03-31T12:34:10.113Z,46.20
2018-03-31T12:35:12.183Z,48.83
2018-03-31T12:36:14.225Z,49.25
2018-03-31T12:37:16.252Z,47.22
2018-03-31T12:38:19.084Z,44.65
2018-03-31T12:39:21.161Z,46.65
2018-03-31T12:40:23.189Z,45.38
2018-03-31T12:41:25.217Z,44.58
2018-03-31T12:42:27.269Z,43.72
2018-03-31T12:43:29.346Z,45.65
2018-03-31T12:44:31.414Z,45.28
2018-03-31T12:45:33.466Z,50.00
2018-03-31T12:46:35.498Z,42.10
2018-03-31T12:47:37.544Z,46.90
2018-03-31T12:48:39.585Z,45.15
2018-03-31T12:49:41.658Z,45.50
2018-03-31T12:50:43.704Z,44.38
2018-03-31T12:51:45.829Z,44.28
2018-03-31T12:52:47.870Z,43.95
2018-03-31T12:53:49.908Z,43.10
2018-03-31T12:54:51.954Z,53.92
2018-03-31T12:55:57.404Z,48.80
2018-03-31T12:56:59.444Z,39.53
2018-03-31T12:58:01.517Z,45.78
2018-03-31T12:59:03.576Z,44.60
2018-03-31T13:00:05.618Z,43.95
2018-03-31T13:01:07.667Z,45.78
2018-03-31T13:02:09.693Z,46.95
2018-03-31T13:03:11.806Z,44.65
2018-03-31T13:04:13.917Z,43.83
2018-03-31T13:05:15.949Z,43.92
2018-03-31T13:06:17.978Z,45.35
2018-03-31T13:07:20.779Z,41.63
2018-03-31T13:08:22.849Z,39.92
2018-03-31T13:09:24.904Z,43.33
2018-03-31T13:10:26.928Z,44.55
2018-03-31T13:11:29.723Z,41.47
2018-03-31T13:12:31.752Z,39.45
2018-03-31T13:13:34.543Z,44.72
2018-03-31T13:14:36.605Z,40.55
2018-03-31T13:15:38.643Z,42.65
2018-03-31T13:16:40.678Z,48.72
2018-03-31T13:17:43.515Z,45.90
2018-03-31T13:18:45.543Z,41.13
2018-03-31T13:19:47.566Z,43.22
2018-03-31T13:20:50.361Z,48.03